Time;durP1;ratioP1;P1;durP2;ratioP2;P2;SDS_P1;SDS_P2;PMS_P1;PMS_P2;Temp;Humidity;BMP_temperature;BMP_pressure;BME280_temperature;BME280_humidity;BME280_pressure;Samples;Min_cycle;Max_cycle;Signal;HPM_P1;HPM_P2
2023/04/14 00:01:04;;;;;;;;;2.00;1.00;;;;;;;;5047150;28;62081;-85
2023/04/14 00:03:29;;;;;;;;;1.75;1.00;;;;;;;;5043825;28;62336;-85
2023/04/14 00:05:55;;;;;;;;;3.00;0.25;;;;;;;;5063743;28;61810;-85
2023/04/14 00:08:20;;;;;;;;;1.25;0.00;;;;;;;;5064790;28;61805;-85
2023/04/14 00:10:45;;;;;;;;;0.00;0.00;;;;;;;;5064510;28;61928;-85
2023/04/14 00:13:10;;;;;;;;;1.50;1.00;;;;;;;;5065011;28;62099;-84
2023/04/14 00:15:36;;;;;;;;;0.00;0.00;;;;;;;;5063101;28;62224;-85
2023/04/14 00:18:01;;;;;;;;;0.00;0.00;;;;;;;;5063797;28;62137;-85
2023/04/14 00:20:26;;;;;;;;;0.00;0.00;;;;;;;;5046615;28;61889;-85
2023/04/14 00:22:51;;;;;;;;;0.75;0.00;;;;;;;;5064382;28;61863;-85
2023/04/14 00:25:17;;;;;;;;;2.00;1.00;;;;;;;;5063805;28;63180;-85
2023/04/14 00:27:42;;;;;;;;;0.25;0.00;;;;;;;;5046114;28;61898;-86
2023/04/14 00:30:07;;;;;;;;;1.00;0.00;;;;;;;;5064011;28;61874;-85
2023/04/14 00:32:32;;;;;;;;;0.00;0.00;;;;;;;;5063829;28;62169;-85
2023/04/14 00:34:59;;;;;;;;;0.00;0.00;;;;;;;;5063272;28;61875;-84
2023/04/14 00:37:24;;;;;;;;;0.25;0.00;;;;;;;;5045789;28;61871;-85
2023/04/14 00:39:49;;;;;;;;;0.00;0.00;;;;;;;;5064018;28;61700;-85
2023/04/14 00:42:14;;;;;;;;;1.00;0.00;;;;;;;;5046143;28;62074;-85
2023/04/14 00:44:40;;;;;;;;;1.75;1.75;;;;;;;;5062656;28;62958;-84
2023/04/14 00:47:05;;;;;;;;;2.00;1.00;;;;;;;;5054785;28;61781;-85
2023/04/14 00:49:31;;;;;;;;;1.00;0.00;;;;;;;;5025861;28;61892;-85
2023/04/14 00:51:56;;;;;;;;;0.00;0.00;;;;;;;;5025744;28;62161;-85
2023/04/14 00:54:22;;;;;;;;;0.75;0.75;;;;;;;;5043195;28;63017;-85
2023/04/14 00:56:48;;;;;;;;;1.50;1.00;;;;;;;;5043538;28;62013;-84
2023/04/14 00:59:15;;;;;;;;;0.25;0.25;;;;;;;;5043389;28;61969;-85
2023/04/14 01:01:40;;;;;;;;;1.00;1.00;;;;;;;;5043559;28;62220;-85
2023/04/14 01:04:05;;;;;;;;;2.00;0.00;;;;;;;;5042008;28;61790;-85
2023/04/14 01:06:31;;;;;;;;;1.50;0.00;;;;;;;;5023430;28;61709;-84
2023/04/14 01:08:57;;;;;;;;;0.00;0.00;;;;;;;;5004991;28;61890;-84
2023/04/14 01:11:22;;;;;;;;;0.25;0.25;;;;;;;;5021745;28;61910;-85
2023/04/14 01:13:47;;;;;;;;;1.00;1.00;;;;;;;;5003299;28;64018;-84
2023/04/14 01:16:27;;;;;;;;;1.25;1.00;;;;;;;;5021770;28;61825;-84
2023/04/14 01:18:57;;;;;;;;;0.00;0.00;;;;;;;;5005097;28;61904;-85
2023/04/14 01:21:27;;;;;;;;;0.25;0.25;;;;;;;;5005647;28;62038;-85
2023/04/14 01:23:58;;;;;;;;;1.00;1.00;;;;;;;;5022831;28;62043;-85
2023/04/14 01:26:30;;;;;;;;;1.00;0.00;;;;;;;;5023249;28;61955;-85
2023/04/14 01:29:06;;;;;;;;;1.00;0.00;;;;;;;;5023014;28;61876;-85
2023/04/14 01:31:38;;;;;;;;;0.25;0.25;;;;;;;;5023485;28;61960;-85
2023/04/14 01:34:14;;;;;;;;;0.00;0.00;;;;;;;;5022254;28;61695;-85
2023/04/14 01:36:44;;;;;;;;;1.00;0.00;;;;;;;;5005249;28;61835;-85
2023/04/14 01:39:13;;;;;;;;;0.00;0.00;;;;;;;;5022983;28;62000;-85
2023/04/14 01:41:41;;;;;;;;;1.00;1.00;;;;;;;;5035404;28;62061;-84
2023/04/14 01:44:07;;;;;;;;;0.00;0.00;;;;;;;;5042246;28;61931;-85
2023/04/14 01:46:34;;;;;;;;;1.25;0.00;;;;;;;;5042499;28;62200;-85
2023/04/14 01:48:59;;;;;;;;;0.75;0.75;;;;;;;;5024826;28;62464;-85
2023/04/14 01:51:26;;;;;;;;;1.00;1.00;;;;;;;;5042606;28;61764;-85
2023/04/14 01:53:54;;;;;;;;;13.25;10.00;;;;;;;;5042390;28;62470;-85
2023/04/14 01:56:20;;;;;;;;;13.50;10.25;;;;;;;;5042171;28;61668;-85
2023/04/14 01:58:47;;;;;;;;;8.50;8.50;;;;;;;;5025007;28;62125;-85
2023/04/14 02:01:12;;;;;;;;;15.00;12.25;;;;;;;;5042730;28;62065;-85
2023/04/14 02:03:38;;;;;;;;;17.00;15.00;;;;;;;;5041671;28;62179;-85
2023/04/14 02:06:05;;;;;;;;;19.50;16.50;;;;;;;;5024647;28;61872;-85
2023/04/14 02:08:31;;;;;;;;;19.25;17.00;;;;;;;;5024874;28;61974;-85
2023/04/14 02:10:58;;;;;;;;;6.75;6.25;;;;;;;;5025271;28;62221;-85
2023/04/14 02:13:24;;;;;;;;;12.75;9.50;;;;;;;;5026035;28;65142;-85
2023/04/14 02:15:50;;;;;;;;;7.75;7.75;;;;;;;;5041702;28;61944;-84
2023/04/14 02:18:17;;;;;;;;;12.00;8.00;;;;;;;;5042007;28;61813;-85
2023/04/14 02:20:45;;;;;;;;;6.75;3.00;;;;;;;;5024668;28;62051;-85
2023/04/14 02:23:11;;;;;;;;;6.75;4.00;;;;;;;;5041763;28;62450;-85
2023/04/14 02:25:39;;;;;;;;;2.25;2.00;;;;;;;;5022829;28;61899;-85
2023/04/14 02:28:07;;;;;;;;;3.00;1.50;;;;;;;;5023982;28;62011;-84
2023/04/14 02:30:36;;;;;;;;;1.25;1.25;;;;;;;;5024321;28;61848;-85
2023/04/14 02:33:07;;;;;;;;;1.75;1.00;;;;;;;;5023343;28;63945;-85
2023/04/14 02:35:41;;;;;;;;;1.00;1.00;;;;;;;;5023607;28;62011;-85
2023/04/14 02:38:14;;;;;;;;;1.75;0.75;;;;;;;;5042264;28;61949;-85
2023/04/14 02:40:40;;;;;;;;;0.75;0.75;;;;;;;;5023876;28;61713;-85
2023/04/14 02:43:18;;;;;;;;;3.25;1.25;;;;;;;;5023647;28;63660;-84
2023/04/14 02:45:45;;;;;;;;;1.00;1.00;;;;;;;;5041239;28;61899;-85
2023/04/14 02:48:13;;;;;;;;;1.50;1.00;;;;;;;;5023835;28;62098;-85
2023/04/14 02:50:41;;;;;;;;;2.75;0.25;;;;;;;;5042059;28;62225;-85
2023/04/14 02:53:07;;;;;;;;;2.25;0.75;;;;;;;;5041610;28;61783;-85
2023/04/14 02:55:33;;;;;;;;;1.00;1.00;;;;;;;;5041199;28;61784;-85
2023/04/14 02:57:59;;;;;;;;;0.00;0.00;;;;;;;;5042017;28;61716;-84
2023/04/14 03:00:24;;;;;;;;;2.00;0.50;;;;;;;;5042125;28;61944;-84
2023/04/14 03:02:51;;;;;;;;;1.50;1.00;;;;;;;;5040869;28;61978;-84
2023/04/14 03:05:16;;;;;;;;;0.00;0.00;;;;;;;;5041677;28;62095;-84
2023/04/14 03:07:42;;;;;;;;;0.00;0.00;;;;;;;;5023850;28;61905;-84
2023/04/14 03:10:09;;;;;;;;;1.00;1.00;;;;;;;;5041775;28;61724;-84
2023/04/14 03:12:35;;;;;;;;;0.75;0.75;;;;;;;;5040924;28;61965;-84
2023/04/14 03:15:01;;;;;;;;;1.50;0.00;;;;;;;;5023227;28;62132;-84
2023/04/14 03:17:27;;;;;;;;;1.50;0.75;;;;;;;;5041156;28;62103;-84
2023/04/14 03:19:52;;;;;;;;;1.00;0.00;;;;;;;;5041969;28;61858;-84
2023/04/14 03:22:19;;;;;;;;;1.00;1.00;;;;;;;;5041193;28;61987;-84
2023/04/14 03:24:45;;;;;;;;;0.00;0.00;;;;;;;;5023159;28;61898;-84
2023/04/14 03:27:13;;;;;;;;;1.00;1.00;;;;;;;;5023541;28;61802;-84
2023/04/14 03:29:40;;;;;;;;;0.75;0.75;;;;;;;;5023710;28;61926;-84
2023/04/14 03:32:06;;;;;;;;;2.25;2.00;;;;;;;;5040399;28;61822;-84
2023/04/14 03:37:54;;;;;;;;;0.00;0.00;;;;;;;;5044254;28;61931;-84
2023/04/14 03:40:21;;;;;;;;;1.75;1.00;;;;;;;;5027136;28;62013;-84
2023/04/14 03:42:47;;;;;;;;;1.50;0.75;;;;;;;;5044301;28;61769;-84
2023/04/14 03:45:12;;;;;;;;;1.00;1.00;;;;;;;;5044256;28;61995;-84
2023/04/14 03:47:37;;;;;;;;;1.00;1.00;;;;;;;;5044608;28;62002;-84
2023/04/14 03:50:04;;;;;;;;;2.00;1.00;;;;;;;;5045020;28;61811;-84
2023/04/14 03:52:31;;;;;;;;;1.00;1.00;;;;;;;;5043518;28;61801;-84
2023/04/14 03:54:59;;;;;;;;;2.00;1.00;;;;;;;;5026845;28;61791;-84
2023/04/14 03:57:25;;;;;;;;;1.00;0.25;;;;;;;;5044794;28;61821;-84
2023/04/14 04:00:14;;;;;;;;;1.00;1.00;;;;;;;;5044545;28;61944;-84
2023/04/14 04:02:41;;;;;;;;;2.25;0.25;;;;;;;;5025025;28;63181;-84
2023/04/14 04:05:08;;;;;;;;;1.00;1.00;;;;;;;;5044862;28;61937;-84
2023/04/14 04:07:34;;;;;;;;;1.25;1.00;;;;;;;;5044171;28;61890;-84
2023/04/14 04:10:01;;;;;;;;;1.00;1.00;;;;;;;;5044622;28;61814;-84
2023/04/14 04:12:26;;;;;;;;;0.75;0.75;;;;;;;;5043904;28;62896;-84
2023/04/14 04:14:52;;;;;;;;;0.00;0.00;;;;;;;;5025746;28;61830;-84
2023/04/14 04:17:18;;;;;;;;;0.75;0.50;;;;;;;;5025986;28;62045;-84
2023/04/14 04:19:44;;;;;;;;;1.25;1.25;;;;;;;;5044522;28;61790;-85
2023/04/14 04:22:13;;;;;;;;;0.00;0.00;;;;;;;;5043462;28;63231;-85
2023/04/14 04:24:39;;;;;;;;;1.00;1.00;;;;;;;;5025276;28;62146;-84
2023/04/14 04:27:05;;;;;;;;;1.00;1.00;;;;;;;;5044277;28;61862;-84
2023/04/14 04:29:31;;;;;;;;;1.00;1.00;;;;;;;;5044374;28;61940;-84
2023/04/14 04:31:56;;;;;;;;;1.00;1.00;;;;;;;;5025035;28;63512;-85
2023/04/14 04:34:23;;;;;;;;;2.00;2.00;;;;;;;;5038251;28;61911;-85
2023/04/14 04:36:48;;;;;;;;;2.75;2.75;;;;;;;;5023373;28;61980;-84
2023/04/14 04:39:13;;;;;;;;;2.00;1.00;;;;;;;;5024679;28;61733;-84
2023/04/14 04:41:39;;;;;;;;;1.00;1.00;;;;;;;;5043483;28;61819;-84
2023/04/14 04:44:04;;;;;;;;;1.00;1.00;;;;;;;;5043496;28;61913;-84
2023/04/14 04:46:30;;;;;;;;;3.25;3.25;;;;;;;;5043103;28;61989;-84
2023/04/14 04:48:56;;;;;;;;;2.00;2.00;;;;;;;;5042595;28;61756;-84
2023/04/14 04:51:21;;;;;;;;;3.25;1.00;;;;;;;;5042914;28;62373;-84
2023/04/14 04:53:46;;;;;;;;;3.00;2.00;;;;;;;;5043764;28;62118;-85
2023/04/14 04:56:11;;;;;;;;;3.00;1.75;;;;;;;;5025403;28;61829;-85
2023/04/14 04:58:37;;;;;;;;;1.75;1.75;;;;;;;;5025743;28;62247;-84
2023/04/14 05:01:08;;;;;;;;;2.00;1.00;;;;;;;;5042809;28;61893;-84
2023/04/14 05:03:35;;;;;;;;;3.00;2.00;;;;;;;;5042971;28;61919;-84
2023/04/14 05:06:00;;;;;;;;;1.00;1.00;;;;;;;;5024261;28;61913;-84
2023/04/14 05:08:25;;;;;;;;;1.00;1.00;;;;;;;;5042405;28;62000;-84
2023/04/14 05:10:51;;;;;;;;;2.00;2.00;;;;;;;;5023201;28;65069;-84
2023/04/14 05:13:16;;;;;;;;;2.00;2.00;;;;;;;;5042617;28;61919;-89
2023/04/14 05:15:41;;;;;;;;;2.00;2.00;;;;;;;;5042861;28;62501;-87
2023/04/14 05:21:20;;;;;;;;;1.00;1.00;;;;;;;;5035635;28;62298;-87
2023/04/14 05:23:45;;;;;;;;;1.50;1.50;;;;;;;;5025387;28;61815;-89
2023/04/14 05:26:11;;;;;;;;;2.00;1.00;;;;;;;;5043174;28;61744;-88
2023/04/14 05:28:37;;;;;;;;;1.00;1.00;;;;;;;;5022570;28;62165;-89
2023/04/14 05:31:03;;;;;;;;;3.00;1.25;;;;;;;;5022357;28;61885;-88
2023/04/14 05:33:28;;;;;;;;;2.00;2.00;;;;;;;;5022573;28;61689;-86
2023/04/14 05:35:53;;;;;;;;;1.50;1.50;;;;;;;;5023525;28;61864;-87
2023/04/14 05:38:19;;;;;;;;;2.75;2.00;;;;;;;;5023451;28;61829;-84
2023/04/14 05:40:44;;;;;;;;;2.75;2.00;;;;;;;;5022774;28;62762;-85
2023/04/14 05:43:10;;;;;;;;;3.25;3.00;;;;;;;;5032739;28;62289;-84
2023/04/14 05:45:35;;;;;;;;;2.75;2.75;;;;;;;;5036503;28;61933;-84
2023/04/14 05:48:00;;;;;;;;;2.00;2.00;;;;;;;;5038703;28;62158;-85
2023/04/14 05:50:26;;;;;;;;;4.50;3.50;;;;;;;;5041366;28;62878;-85
2023/04/14 05:52:51;;;;;;;;;3.00;3.00;;;;;;;;5038666;28;61937;-91
2023/04/14 05:55:17;;;;;;;;;3.50;2.25;;;;;;;;5017765;28;61806;-87
2023/04/14 05:57:42;;;;;;;;;1.75;1.75;;;;;;;;5023248;28;61806;-86
2023/04/14 06:00:08;;;;;;;;;4.00;2.75;;;;;;;;5041395;28;62854;-86
2023/04/14 06:02:34;;;;;;;;;3.75;3.00;;;;;;;;5022944;28;62502;-86
2023/04/14 06:04:59;;;;;;;;;2.25;2.25;;;;;;;;5024432;28;61821;-85
2023/04/14 06:07:24;;;;;;;;;4.50;3.25;;;;;;;;5042025;28;62216;-86
2023/04/14 06:09:50;;;;;;;;;3.00;2.50;;;;;;;;5041652;28;61856;-86
2023/04/14 06:12:15;;;;;;;;;4.00;2.50;;;;;;;;5023673;28;61946;-85
2023/04/14 06:14:41;;;;;;;;;2.00;2.00;;;;;;;;5045289;28;61871;-87
2023/04/14 06:17:06;;;;;;;;;7.00;3.00;;;;;;;;5042915;28;62222;-86
2023/04/14 06:19:33;;;;;;;;;6.50;3.50;;;;;;;;5029102;28;62738;-85
2023/04/14 06:22:02;;;;;;;;;3.25;3.00;;;;;;;;5022080;28;61768;-85
2023/04/14 06:24:33;;;;;;;;;6.00;5.50;;;;;;;;5022235;28;62065;-80
2023/04/14 06:27:03;;;;;;;;;5.25;3.50;;;;;;;;5010501;28;61864;-81
2023/04/14 06:29:31;;;;;;;;;5.00;3.00;;;;;;;;5023120;28;61976;-82
2023/04/14 06:31:59;;;;;;;;;3.75;3.75;;;;;;;;5041255;28;61762;-82
2023/04/14 06:34:25;;;;;;;;;3.50;2.00;;;;;;;;5023547;28;61814;-82
2023/04/14 06:36:51;;;;;;;;;4.00;4.00;;;;;;;;5042247;28;61759;-82
2023/04/14 06:39:17;;;;;;;;;4.25;3.00;;;;;;;;5041274;28;62568;-81
2023/04/14 06:41:42;;;;;;;;;4.00;4.00;;;;;;;;5041645;28;61684;-81
2023/04/14 06:44:12;;;;;;;;;3.25;3.25;;;;;;;;5042126;28;61994;-81
2023/04/14 06:46:42;;;;;;;;;3.25;3.25;;;;;;;;5039249;28;61714;-82
2023/04/14 06:49:08;;;;;;;;;8.00;3.00;;;;;;;;5040128;28;62003;-82
2023/04/14 06:51:34;;;;;;;;;5.25;3.00;;;;;;;;5021649;28;62183;-82
2023/04/14 06:53:59;;;;;;;;;4.00;3.00;;;;;;;;5059950;28;61917;-81
2023/04/14 06:56:25;;;;;;;;;5.00;3.50;;;;;;;;5038232;28;61819;-84
2023/04/14 06:58:50;;;;;;;;;8.25;6.75;;;;;;;;5032496;28;62086;-85
2023/04/14 07:01:15;;;;;;;;;4.00;3.00;;;;;;;;5039819;28;61992;-84
2023/04/14 07:03:40;;;;;;;;;8.00;5.50;;;;;;;;5016602;28;61912;-84
2023/04/14 07:06:08;;;;;;;;;4.75;4.75;;;;;;;;5031133;28;61719;-85
2023/04/14 07:08:34;;;;;;;;;7.00;7.00;;;;;;;;5016291;28;64152;-85
2023/04/14 07:11:00;;;;;;;;;6.25;6.25;;;;;;;;5009797;28;61847;-84
2023/04/14 07:13:25;;;;;;;;;7.00;7.00;;;;;;;;5024879;28;61865;-84
2023/04/14 07:15:51;;;;;;;;;7.75;6.75;;;;;;;;5023772;28;61811;-85
2023/04/14 07:18:16;;;;;;;;;8.75;7.00;;;;;;;;5017040;28;64834;-84
2023/04/14 07:20:41;;;;;;;;;10.00;6.25;;;;;;;;5044068;28;61893;-84
2023/04/14 07:23:06;;;;;;;;;10.00;8.25;;;;;;;;5044513;28;61869;-85
2023/04/14 07:25:33;;;;;;;;;6.00;6.00;;;;;;;;5030925;28;61982;-87
2023/04/14 07:27:59;;;;;;;;;10.25;6.50;;;;;;;;5023857;28;62845;-89
2023/04/14 07:30:25;;;;;;;;;6.75;6.50;;;;;;;;5016116;28;62279;-87
2023/04/14 07:32:50;;;;;;;;;8.00;8.00;;;;;;;;5034538;28;61820;-88
2023/04/14 07:35:15;;;;;;;;;9.50;8.00;;;;;;;;5026462;28;62203;-87
2023/04/14 07:37:40;;;;;;;;;2.00;2.00;;;;;;;;5043486;28;62235;-87
2023/04/14 07:40:09;;;;;;;;;6.00;5.00;;;;;;;;5044228;28;61937;-86
2023/04/14 07:42:35;;;;;;;;;7.50;7.25;;;;;;;;5044599;28;61736;-86
2023/04/14 07:45:01;;;;;;;;;5.75;4.75;;;;;;;;5039790;28;62310;-87
2023/04/14 07:47:27;;;;;;;;;10.50;8.25;;;;;;;;5021506;28;63705;-86
2023/04/14 07:49:53;;;;;;;;;8.25;8.00;;;;;;;;5023926;28;61998;-87
2023/04/14 07:52:18;;;;;;;;;8.25;8.25;;;;;;;;5011711;28;61972;-86
2023/04/14 07:54:44;;;;;;;;;7.00;7.00;;;;;;;;5025265;28;62139;-87
2023/04/14 07:57:09;;;;;;;;;13.00;9.00;;;;;;;;5043242;28;61838;-87
2023/04/14 07:59:37;;;;;;;;;7.00;7.00;;;;;;;;5025465;28;61983;-87
2023/04/14 08:02:02;;;;;;;;;6.00;6.00;;;;;;;;5024825;28;62005;-88
2023/04/14 08:04:27;;;;;;;;;6.00;6.00;;;;;;;;5038006;28;62221;-83
2023/04/14 08:06:52;;;;;;;;;7.00;5.75;;;;;;;;5008178;28;64087;-86
2023/04/14 08:09:18;;;;;;;;;8.25;6.25;;;;;;;;5026002;28;62075;-88
2023/04/14 08:11:43;;;;;;;;;7.75;4.50;;;;;;;;5025803;28;61802;-82
2023/04/14 08:14:08;;;;;;;;;6.75;4.75;;;;;;;;5025542;28;61793;-81
2023/04/14 08:16:35;;;;;;;;;8.00;6.75;;;;;;;;5042203;28;62801;-81
2023/04/14 08:19:01;;;;;;;;;6.25;4.50;;;;;;;;5025166;28;61980;-81
2023/04/14 08:21:26;;;;;;;;;6.50;6.50;;;;;;;;5043830;28;62020;-81
2023/04/14 08:23:51;;;;;;;;;8.25;5.00;;;;;;;;5042080;28;62118;-81
2023/04/14 08:26:17;;;;;;;;;8.00;7.00;;;;;;;;5043085;28;62143;-81
2023/04/14 08:28:42;;;;;;;;;5.75;5.50;;;;;;;;5043425;28;62249;-82
2023/04/14 08:31:07;;;;;;;;;7.75;5.75;;;;;;;;5024793;28;61795;-82
2023/04/14 08:33:32;;;;;;;;;5.25;3.00;;;;;;;;5025743;28;62842;-82
2023/04/14 08:35:58;;;;;;;;;4.00;3.25;;;;;;;;5042077;28;61750;-83
2023/04/14 08:38:23;;;;;;;;;2.75;2.00;;;;;;;;5025196;28;62004;-81
2023/04/14 08:40:51;;;;;;;;;12.00;11.50;;;;;;;;5043161;28;61882;-82
2023/04/14 08:43:16;;;;;;;;;3.00;3.00;;;;;;;;5024863;28;61932;-82
2023/04/14 08:45:42;;;;;;;;;3.00;3.00;;;;;;;;5024010;28;63798;-82
2023/04/14 08:48:08;;;;;;;;;4.75;3.00;;;;;;;;5041906;28;62060;-82
2023/04/14 08:50:35;;;;;;;;;2.75;2.75;;;;;;;;5025023;28;61951;-81
2023/04/14 08:53:04;;;;;;;;;3.00;3.00;;;;;;;;5025203;28;61727;-82
2023/04/14 08:55:31;;;;;;;;;4.25;3.75;;;;;;;;5024293;28;64836;-82
2023/04/14 08:57:57;;;;;;;;;4.00;2.00;;;;;;;;5024070;28;61891;-81
2023/04/14 09:00:22;;;;;;;;;1.75;1.75;;;;;;;;5024648;28;62115;-83
2023/04/14 09:02:48;;;;;;;;;3.00;3.00;;;;;;;;5054975;28;61781;-83
2023/04/14 09:05:14;;;;;;;;;3.25;2.25;;;;;;;;5049425;28;61903;-84
2023/04/14 09:07:41;;;;;;;;;4.50;2.50;;;;;;;;5032377;28;61891;-84
2023/04/14 09:10:07;;;;;;;;;1.50;1.50;;;;;;;;5024215;28;62084;-86
2023/04/14 09:12:32;;;;;;;;;4.00;2.25;;;;;;;;5023631;28;62114;-86
2023/04/14 09:14:57;;;;;;;;;1.00;1.00;;;;;;;;5040658;28;62784;-89
2023/04/14 09:17:25;;;;;;;;;2.00;1.00;;;;;;;;5040627;28;62078;-84
2023/04/14 09:19:50;;;;;;;;;1.00;1.00;;;;;;;;5023434;28;61771;-83
2023/04/14 09:22:16;;;;;;;;;3.00;3.00;;;;;;;;5020934;28;61888;-85
2023/04/14 09:24:41;;;;;;;;;4.00;2.75;;;;;;;;5040677;28;62814;-83
2023/04/14 09:27:07;;;;;;;;;3.50;3.50;;;;;;;;5023396;28;61924;-85
2023/04/14 09:29:32;;;;;;;;;4.00;3.50;;;;;;;;5042155;28;61878;-81
2023/04/14 09:31:58;;;;;;;;;3.25;3.25;;;;;;;;5022530;28;62372;-83
2023/04/14 09:34:23;;;;;;;;;2.25;2.00;;;;;;;;5023175;28;64160;-82
2023/04/14 09:37:04;;;;;;;;;4.25;3.75;;;;;;;;5042903;28;61876;-85
2023/04/14 09:39:31;;;;;;;;;3.50;3.00;;;;;;;;5023849;28;62287;-81
2023/04/14 09:41:56;;;;;;;;;3.50;3.50;;;;;;;;5042134;28;63128;-84
2023/04/14 09:44:21;;;;;;;;;2.00;2.00;;;;;;;;5037923;28;61917;-86
2023/04/14 09:47:00;;;;;;;;;4.00;4.00;;;;;;;;5022300;28;61952;-85
2023/04/14 09:49:26;;;;;;;;;3.00;3.00;;;;;;;;5034754;28;62115;-83
2023/04/14 09:51:54;;;;;;;;;4.75;3.00;;;;;;;;5028683;28;61950;-84
2023/04/14 09:54:25;;;;;;;;;7.00;3.75;;;;;;;;5020180;28;63554;-83
2023/04/14 09:56:54;;;;;;;;;3.25;2.00;;;;;;;;5042364;28;61808;-84
2023/04/14 09:59:30;;;;;;;;;5.50;2.00;;;;;;;;5038921;28;62765;-85
2023/04/14 10:01:58;;;;;;;;;2.75;2.00;;;;;;;;5036722;28;62096;-85
2023/04/14 10:04:25;;;;;;;;;2.00;2.00;;;;;;;;5041318;28;62108;-85
2023/04/14 10:06:54;;;;;;;;;5.75;1.75;;;;;;;;5020858;28;61964;-83
2023/04/14 10:09:21;;;;;;;;;4.50;2.75;;;;;;;;5043920;28;61819;-84
2023/04/14 10:12:04;;;;;;;;;3.00;2.00;;;;;;;;5040970;28;61850;-83
2023/04/14 10:14:30;;;;;;;;;6.25;1.50;;;;;;;;5037718;28;61988;-83
2023/04/14 10:16:55;;;;;;;;;4.75;2.00;;;;;;;;5038159;28;61889;-83
2023/04/14 10:19:21;;;;;;;;;2.25;1.00;;;;;;;;5021831;28;62167;-87
2023/04/14 10:21:46;;;;;;;;;3.75;1.25;;;;;;;;5040571;28;62125;-83
2023/04/14 10:24:11;;;;;;;;;10.00;7.50;;;;;;;;5035382;28;62888;-84
2023/04/14 10:26:37;;;;;;;;;4.00;4.00;;;;;;;;5029645;28;61961;-83
2023/04/14 10:29:02;;;;;;;;;2.75;1.50;;;;;;;;5040130;28;61943;-85
2023/04/14 10:31:36;;;;;;;;;3.25;2.00;;;;;;;;5041114;28;61775;-86
2023/04/14 10:34:09;;;;;;;;;1.25;1.00;;;;;;;;5039761;28;62241;-83
2023/04/14 10:36:36;;;;;;;;;2.00;2.00;;;;;;;;5038634;28;62068;-83
2023/04/14 10:39:02;;;;;;;;;2.25;1.75;;;;;;;;5039914;28;62102;-82
2023/04/14 10:41:54;;;;;;;;;1.75;1.00;;;;;;;;5040675;28;61762;-83
2023/04/14 10:44:23;;;;;;;;;2.00;1.25;;;;;;;;5035131;28;61778;-82
2023/04/14 10:46:48;;;;;;;;;3.25;2.25;;;;;;;;5035761;28;61911;-83
2023/04/14 10:49:14;;;;;;;;;1.00;1.00;;;;;;;;5021537;28;61925;-84
2023/04/14 10:51:39;;;;;;;;;1.00;0.00;;;;;;;;5040319;28;61760;-82
2023/04/14 10:54:16;;;;;;;;;2.25;1.50;;;;;;;;5041795;28;61902;-80
2023/04/14 10:57:01;;;;;;;;;1.50;1.00;;;;;;;;5041390;28;61882;-84
2023/04/14 10:59:28;;;;;;;;;1.50;1.00;;;;;;;;5020216;28;61893;-84
2023/04/14 11:01:55;;;;;;;;;2.75;1.75;;;;;;;;5011886;28;62297;-81
2023/04/14 11:04:22;;;;;;;;;3.50;2.00;;;;;;;;5054165;28;62074;-81
2023/04/14 11:06:47;;;;;;;;;1.00;1.00;;;;;;;;5061294;28;61801;-81
2023/04/14 11:09:31;;;;;;;;;2.00;1.00;;;;;;;;5043213;28;61745;-89
2023/04/14 11:12:00;;;;;;;;;1.50;1.00;;;;;;;;5061335;28;61736;-86
2023/04/14 11:14:26;;;;;;;;;1.75;0.75;;;;;;;;5042866;28;63952;-84
2023/04/14 11:16:56;;;;;;;;;2.25;2.00;;;;;;;;5032171;28;61796;-81
2023/04/14 11:19:22;;;;;;;;;4.00;1.75;;;;;;;;5041025;28;61965;-84
2023/04/14 11:21:52;;;;;;;;;3.50;1.50;;;;;;;;5040771;28;61755;-83
2023/04/14 11:24:17;;;;;;;;;1.50;1.50;;;;;;;;5022666;28;64598;-85
2023/04/14 11:26:44;;;;;;;;;2.00;2.00;;;;;;;;5021757;28;62049;-85
2023/04/14 11:29:09;;;;;;;;;1.25;1.25;;;;;;;;5041114;28;62065;-85
2023/04/14 11:31:34;;;;;;;;;1.00;1.00;;;;;;;;5022846;28;62185;-84
2023/04/14 11:34:02;;;;;;;;;3.00;1.50;;;;;;;;5039396;28;62686;-87
2023/04/14 11:36:28;;;;;;;;;1.50;0.25;;;;;;;;5022701;28;61956;-87
2023/04/14 11:38:53;;;;;;;;;1.00;1.00;;;;;;;;5038498;28;62017;-86
2023/04/14 11:41:20;;;;;;;;;1.50;1.50;;;;;;;;5014243;28;62183;-87
2023/04/14 11:43:47;;;;;;;;;3.75;1.00;;;;;;;;5011087;28;64676;-86
2023/04/14 11:46:14;;;;;;;;;0.75;0.75;;;;;;;;5030029;28;61949;-84
2023/04/14 11:48:39;;;;;;;;;1.00;1.00;;;;;;;;5029490;28;61744;-85
2023/04/14 11:51:05;;;;;;;;;2.00;2.00;;;;;;;;5013226;28;62076;-88
2023/04/14 11:53:31;;;;;;;;;1.00;1.00;;;;;;;;5007052;28;63527;-83
2023/04/14 11:55:57;;;;;;;;;1.75;1.00;;;;;;;;5039751;28;61779;-85
2023/04/14 11:58:24;;;;;;;;;3.50;2.50;;;;;;;;5043303;28;62049;-88
2023/04/14 12:00:49;;;;;;;;;1.75;1.75;;;;;;;;5044934;28;61710;-89
2023/04/14 12:03:15;;;;;;;;;2.75;1.75;;;;;;;;5038959;28;61988;-88
2023/04/14 12:05:41;;;;;;;;;1.00;0.50;;;;;;;;5026627;28;62110;-88
2023/04/14 12:08:07;;;;;;;;;2.00;1.00;;;;;;;;5044296;28;61783;-86
2023/04/14 12:10:33;;;;;;;;;2.00;1.00;;;;;;;;5044883;28;61907;-87
2023/04/14 12:13:02;;;;;;;;;1.00;1.00;;;;;;;;5043708;28;61786;-85
2023/04/14 12:15:28;;;;;;;;;0.25;0.25;;;;;;;;5044115;28;62158;-85
2023/04/14 12:17:54;;;;;;;;;2.00;1.00;;;;;;;;5043971;28;61831;-84
2023/04/14 12:20:19;;;;;;;;;1.75;0.25;;;;;;;;5044619;28;62117;-84
2023/04/14 12:22:46;;;;;;;;;2.50;1.50;;;;;;;;5043510;28;61806;-85
2023/04/14 12:25:11;;;;;;;;;2.00;0.00;;;;;;;;5044413;28;61748;-84
2023/04/14 12:27:36;;;;;;;;;0.00;0.00;;;;;;;;5022429;28;61981;-85
2023/04/14 12:30:04;;;;;;;;;2.25;1.00;;;;;;;;5025071;28;61871;-83
2023/04/14 12:32:36;;;;;;;;;0.50;0.50;;;;;;;;5041542;28;61837;-85
2023/04/14 12:35:01;;;;;;;;;0.00;0.00;;;;;;;;5044875;28;61836;-85
2023/04/14 12:37:27;;;;;;;;;0.75;0.00;;;;;;;;5026993;28;61700;-87
2023/04/14 12:39:56;;;;;;;;;0.50;0.50;;;;;;;;5044700;28;61847;-86
2023/04/14 12:42:22;;;;;;;;;1.75;0.00;;;;;;;;5025690;28;63809;-86
2023/04/14 12:44:54;;;;;;;;;2.50;0.50;;;;;;;;5026231;28;61984;-85
2023/04/14 12:47:30;;;;;;;;;1.25;1.00;;;;;;;;5044474;28;61966;-85
2023/04/14 12:49:55;;;;;;;;;2.50;1.00;;;;;;;;5026678;28;61935;-86
2023/04/14 12:52:37;;;;;;;;;0.00;0.00;;;;;;;;5043859;28;62266;-85
2023/04/14 12:55:03;;;;;;;;;2.75;0.75;;;;;;;;5045016;28;61982;-86
2023/04/14 12:57:29;;;;;;;;;1.00;0.00;;;;;;;;5026290;28;61933;-83
2023/04/14 12:59:54;;;;;;;;;1.00;1.00;;;;;;;;5044671;28;62126;-85
2023/04/14 13:02:20;;;;;;;;;0.00;0.00;;;;;;;;5025935;28;63652;-85
2023/04/14 13:04:45;;;;;;;;;1.25;0.25;;;;;;;;5033535;28;61913;-86
2023/04/14 13:07:10;;;;;;;;;1.25;0.00;;;;;;;;5044381;28;61974;-84
2023/04/14 13:09:35;;;;;;;;;1.50;1.00;;;;;;;;5025722;28;62255;-84
2023/04/14 13:12:01;;;;;;;;;0.75;0.75;;;;;;;;5025563;28;63950;-85
2023/04/14 13:14:26;;;;;;;;;0.75;0.00;;;;;;;;5022929;28;62083;-84
2023/04/14 13:16:51;;;;;;;;;1.00;1.00;;;;;;;;5041587;28;61861;-85
2023/04/14 13:19:16;;;;;;;;;0.00;0.00;;;;;;;;5043724;28;61981;-83
2023/04/14 13:21:42;;;;;;;;;1.50;1.50;;;;;;;;5025229;28;63812;-83
2023/04/14 13:24:07;;;;;;;;;1.00;1.00;;;;;;;;5044136;28;62068;-84
2023/04/14 13:26:32;;;;;;;;;0.25;0.00;;;;;;;;5043358;28;61747;-85
2023/04/14 13:28:58;;;;;;;;;2.00;0.75;;;;;;;;5044464;28;61875;-84
2023/04/14 13:31:23;;;;;;;;;1.00;1.00;;;;;;;;5042740;28;61858;-87
2023/04/14 13:33:48;;;;;;;;;2.00;0.75;;;;;;;;5042964;28;62071;-84
2023/04/14 13:36:13;;;;;;;;;0.25;0.25;;;;;;;;5044055;28;61571;-84
2023/04/14 13:38:40;;;;;;;;;2.00;1.00;;;;;;;;5035003;28;61733;-84
2023/04/14 13:41:06;;;;;;;;;1.00;1.00;;;;;;;;5031647;28;62581;-84
2023/04/14 13:43:32;;;;;;;;;1.25;1.25;;;;;;;;5039077;28;61801;-85
2023/04/14 13:45:57;;;;;;;;;1.00;1.00;;;;;;;;5039172;28;62067;-84
2023/04/14 13:48:23;;;;;;;;;3.00;1.50;;;;;;;;5035890;28;62215;-85
2023/04/14 13:50:52;;;;;;;;;1.50;1.50;;;;;;;;5021360;28;63739;-84
2023/04/14 13:53:17;;;;;;;;;1.50;1.50;;;;;;;;5036547;28;61803;-84
2023/04/14 13:55:42;;;;;;;;;2.00;1.00;;;;;;;;5038582;28;61949;-84
2023/04/14 13:58:08;;;;;;;;;1.50;1.00;;;;;;;;5039086;28;61779;-84
2023/04/14 14:00:33;;;;;;;;;0.50;0.50;;;;;;;;5021715;28;64710;-85
2023/04/14 14:02:59;;;;;;;;;1.50;0.75;;;;;;;;5040419;28;61832;-84
2023/04/14 14:05:24;;;;;;;;;0.00;0.00;;;;;;;;5036226;28;62011;-86
2023/04/14 14:07:49;;;;;;;;;1.00;1.00;;;;;;;;5023948;28;62439;-84
2023/04/14 14:10:15;;;;;;;;;1.00;1.00;;;;;;;;5038415;28;61861;-85
2023/04/14 14:12:40;;;;;;;;;1.50;1.00;;;;;;;;5015574;28;61936;-85
2023/04/14 14:15:06;;;;;;;;;0.75;0.75;;;;;;;;5018577;28;61920;-85
2023/04/14 14:17:31;;;;;;;;;4.00;1.00;;;;;;;;5012795;28;62036;-85
2023/04/14 14:19:57;;;;;;;;;1.25;1.00;;;;;;;;5029170;28;61994;-85
2023/04/14 14:22:25;;;;;;;;;0.00;0.00;;;;;;;;5040577;28;62286;-87
2023/04/14 14:24:50;;;;;;;;;0.00;0.00;;;;;;;;5037095;28;61849;-85
2023/04/14 14:27:15;;;;;;;;;0.00;0.00;;;;;;;;5032342;28;62123;-83
2023/04/14 14:29:41;;;;;;;;;3.25;1.00;;;;;;;;5040813;28;61858;-85
2023/04/14 14:32:06;;;;;;;;;0.00;0.00;;;;;;;;5039330;28;61910;-83
2023/04/14 14:34:31;;;;;;;;;0.00;0.00;;;;;;;;5041881;28;61911;-83
2023/04/14 14:36:56;;;;;;;;;1.00;0.00;;;;;;;;5037488;28;61887;-84
2023/04/14 14:39:23;;;;;;;;;0.75;0.00;;;;;;;;5019119;28;63739;-84
2023/04/14 14:41:48;;;;;;;;;0.00;0.00;;;;;;;;5041974;28;62171;-83
2023/04/14 14:44:14;;;;;;;;;1.50;1.00;;;;;;;;5038953;28;61906;-84
2023/04/14 14:46:39;;;;;;;;;0.00;0.00;;;;;;;;5041479;28;61689;-84